Time;durP1;ratioP1;P1;durP2;ratioP2;P2;SDS_P1;SDS_P2;PMS_P1;PMS_P2;Temp;Humidity;BMP_temperature;BMP_pressure;BME280_temperature;BME280_humidity;BME280_pressure;Samples;Min_cycle;Max_cycle;Signal;HPM_P1;HPM_P2
2021/08/25 00:01:07;;;;;;;16.15;14.45;;;;;;;21.07;57.81;101887.22;5132188;27;20088;-58
2021/08/25 00:03:33;;;;;;;17.85;15.95;;;;;;;21.05;57.84;101881.97;5131458;27;20055;-57
2021/08/25 00:05:58;;;;;;;20.17;14.63;;;;;;;21.07;57.88;101885.34;5122465;27;20047;-57
2021/08/25 00:08:24;;;;;;;16.05;13.77;;;;;;;21.04;57.34;101880.31;5114797;27;20046;-58
2021/08/25 00:10:50;;;;;;;18.02;14.95;;;;;;;21.03;57.40;101875.97;5121029;27;20035;-57
2021/08/25 00:13:18;;;;;;;17.30;14.05;;;;;;;21.05;57.55;101875.78;5131999;27;20106;-58
2021/08/25 00:15:44;;;;;;;18.13;13.95;;;;;;;21.04;57.54;101879.47;5096527;28;20036;-59
2021/08/25 00:18:11;;;;;;;17.63;14.52;;;;;;;21.03;57.66;101885.88;5131840;28;20042;-58
2021/08/25 00:20:37;;;;;;;17.20;14.75;;;;;;;20.99;57.45;101881.88;5119823;28;20057;-58
2021/08/25 00:23:03;;;;;;;17.23;14.95;;;;;;;21.00;57.52;101880.84;5102587;28;20032;-58
2021/08/25 00:25:29;;;;;;;18.35;13.77;;;;;;;20.98;57.60;101874.81;5115298;28;20039;-58
2021/08/25 00:27:55;;;;;;;19.88;14.68;;;;;;;20.94;57.48;101877.88;5129041;28;20393;-58
2021/08/25 00:30:21;;;;;;;18.65;14.73;;;;;;;20.93;57.57;101872.66;5128412;28;20161;-58
2021/08/25 00:32:48;;;;;;;17.83;13.98;;;;;;;20.93;57.46;101869.97;5131588;28;20043;-58
2021/08/25 00:35:14;;;;;;;17.52;14.52;;;;;;;20.93;57.40;101868.13;5131707;28;20059;-58
2021/08/25 00:37:40;;;;;;;20.55;14.73;;;;;;;20.91;57.43;101863.94;5128915;28;20069;-59
2021/08/25 00:40:07;;;;;;;18.33;15.02;;;;;;;20.85;57.27;101864.66;5127175;28;20035;-58
2021/08/25 00:42:33;;;;;;;20.13;13.95;;;;;;;20.86;57.29;101867.16;5131845;28;20035;-58
2021/08/25 00:45:04;;;;;;;15.38;13.48;;;;;;;20.85;57.17;101864.66;5132146;28;20035;-58
2021/08/25 00:47:49;;;;;;;17.33;14.52;;;;;;;20.82;56.56;101872.03;5104076;28;20528;-58
2021/08/25 00:50:16;;;;;;;17.33;13.77;;;;;;;20.82;56.78;101865.81;5131453;28;20489;-57
2021/08/25 00:52:42;;;;;;;19.52;14.98;;;;;;;20.82;57.24;101865.81;5131530;28;20444;-56
2021/08/25 00:55:11;;;;;;;15.43;13.30;;;;;;;20.81;57.25;101861.47;5111599;28;20052;-56
2021/08/25 00:57:43;;;;;;;17.15;13.75;;;;;;;20.78;57.53;101859.16;5103119;28;20054;-55
2021/08/25 01:00:10;;;;;;;17.65;15.15;;;;;;;20.73;56.95;101857.00;5131461;28;20039;-56
2021/08/25 01:02:36;;;;;;;17.05;13.55;;;;;;;20.75;56.74;101851.44;5131268;28;20517;-56
2021/08/25 01:05:03;;;;;;;17.52;15.18;;;;;;;20.72;56.77;101854.50;5131389;28;20121;-56
2021/08/25 01:07:31;;;;;;;16.38;14.00;;;;;;;20.69;56.66;101856.50;5131359;28;20059;-55
2021/08/25 01:09:56;;;;;;;16.33;14.07;;;;;;;20.66;56.31;101850.63;5131648;28;20111;-56
2021/08/25 01:12:24;;;;;;;18.55;14.95;;;;;;;20.64;56.00;101850.00;5131142;28;20056;-55
2021/08/25 01:14:50;;;;;;;19.13;14.48;;;;;;;20.58;55.89;101838.09;5132818;27;20042;-55
2021/08/25 01:17:24;;;;;;;18.15;13.80;;;;;;;20.58;56.05;101843.47;5135207;27;20035;-55
2021/08/25 01:20:00;;;;;;;21.10;14.10;;;;;;;20.55;56.03;101833.94;5089718;27;20114;-55
2021/08/25 01:22:26;;;;;;;16.67;13.13;;;;;;;20.54;56.12;101832.25;5108430;27;20039;-56
2021/08/25 01:24:57;;;;;;;16.13;13.40;;;;;;;20.60;56.28;101835.22;5121983;27;20031;-55
2021/08/25 01:27:26;;;;;;;19.58;13.65;;;;;;;20.55;55.93;101827.72;5127728;27;20074;-55
2021/08/25 01:29:52;;;;;;;20.38;14.10;;;;;;;20.53;56.08;101833.25;5133658;27;20037;-55
2021/08/25 01:32:18;;;;;;;17.50;13.75;;;;;;;20.47;56.11;101822.38;5134903;27;20482;-56
2021/08/25 01:34:55;;;;;;;20.85;14.00;;;;;;;20.50;56.62;101819.34;5134569;27;20027;-56
2021/08/25 01:37:25;;;;;;;16.88;13.65;;;;;;;20.42;56.50;101821.06;5134664;27;20074;-56
2021/08/25 01:39:53;;;;;;;18.02;13.60;;;;;;;20.39;56.35;101820.56;5129484;27;20030;-55
2021/08/25 01:42:20;;;;;;;14.70;12.40;;;;;;;20.37;56.34;101820.75;5134535;27;20027;-56
2021/08/25 01:44:47;;;;;;;16.88;12.52;;;;;;;20.33;56.00;101809.56;5135455;27;20031;-56
2021/08/25 01:47:14;;;;;;;18.05;12.85;;;;;;;20.33;55.90;101801.50;5134543;27;20242;-57
2021/08/25 01:49:40;;;;;;;17.63;12.35;;;;;;;20.30;55.84;101801.00;5134923;27;20075;-56
2021/08/25 01:52:06;;;;;;;13.73;10.88;;;;;;;20.30;56.17;101811.75;5134535;27;20131;-55
2021/08/25 01:54:32;;;;;;;16.75;11.70;;;;;;;20.32;56.07;101810.53;5134419;27;20035;-55
2021/08/25 01:56:57;;;;;;;13.50;11.10;;;;;;;20.33;56.35;101809.56;5129554;27;20474;-56
2021/08/25 01:59:23;;;;;;;12.23;10.77;;;;;;;20.37;56.42;101801.16;5134300;27;20146;-56
2021/08/25 02:01:49;;;;;;;14.40;11.13;;;;;;;20.36;56.21;101802.13;5134389;27;20401;-56
2021/08/25 02:04:15;;;;;;;16.15;11.07;;;;;;;20.39;56.85;101808.00;5134062;27;20088;-56
2021/08/25 02:06:40;;;;;;;12.48;11.02;;;;;;;20.29;56.05;101796.66;5115892;27;20128;-56
2021/08/25 02:09:06;;;;;;;13.82;10.88;;;;;;;20.25;55.60;101790.78;5133977;27;20039;-55
2021/08/25 02:11:33;;;;;;;15.27;11.15;;;;;;;20.24;55.61;101793.66;5134108;27;20066;-56
2021/08/25 02:13:59;;;;;;;11.98;10.43;;;;;;;20.22;55.70;101790.31;5133895;27;20035;-57
2021/08/25 02:16:25;;;;;;;12.00;9.77;;;;;;;20.28;56.72;101786.91;5134171;27;20035;-55
2021/08/25 02:18:50;;;;;;;12.05;10.75;;;;;;;20.31;57.17;101787.41;5121043;27;20038;-56
2021/08/25 02:21:19;;;;;;;15.82;12.35;;;;;;;20.32;57.19;101789.06;5115557;27;20027;-55
2021/08/25 02:23:44;;;;;;;14.88;10.70;;;;;;;20.25;55.56;101789.94;5091482;28;20536;-55
2021/08/25 02:26:16;;;;;;;14.73;11.43;;;;;;;20.16;55.63;101783.81;5117748;27;20039;-55
2021/08/25 02:28:46;;;;;;;18.17;10.73;;;;;;;20.14;55.44;101783.13;5133759;27;20034;-55
2021/08/25 02:31:12;;;;;;;11.68;10.00;;;;;;;20.11;55.23;101780.78;5132065;27;20045;-56
2021/08/25 02:33:39;;;;;;;11.80;10.27;;;;;;;20.10;55.24;101781.81;5133651;27;20119;-55
2021/08/25 02:36:05;;;;;;;13.82;11.15;;;;;;;20.06;55.45;101782.16;5133439;27;20049;-55
2021/08/25 02:38:32;;;;;;;14.95;10.38;;;;;;;20.12;55.68;101777.94;5128012;27;20039;-56
2021/08/25 02:40:57;;;;;;;13.73;10.75;;;;;;;20.13;56.14;101782.28;5134156;27;20131;-57
2021/08/25 02:43:27;;;;;;;12.02;9.73;;;;;;;20.19;57.21;101781.56;5133480;27;20555;-58
2021/08/25 02:45:52;;;;;;;14.38;11.00;;;;;;;20.18;57.42;101782.59;5133753;27;20049;-55
2021/08/25 02:48:18;;;;;;;14.88;12.10;;;;;;;20.19;57.45;101783.44;5133442;27;20102;-56
2021/08/25 02:50:44;;;;;;;13.05;11.07;;;;;;;20.19;57.30;101781.56;5133250;27;20027;-56
2021/08/25 02:53:09;;;;;;;16.55;12.85;;;;;;;20.12;55.96;101775.25;5133452;27;20027;-56
2021/08/25 02:55:35;;;;;;;13.57;11.52;;;;;;;20.07;56.57;101778.47;5128187;27;20133;-56
2021/08/25 02:58:01;;;;;;;14.68;11.18;;;;;;;20.15;57.21;101779.41;5133302;27;20477;-56
2021/08/25 03:00:26;;;;;;;16.08;12.75;;;;;;;20.15;57.10;101784.78;5132987;27;20024;-56
2021/08/25 03:02:52;;;;;;;16.65;12.73;;;;;;;20.13;57.18;101779.59;5133088;27;20027;-56
2021/08/25 03:05:18;;;;;;;15.63;11.48;;;;;;;20.15;57.04;101774.91;5133028;27;20118;-56
2021/08/25 03:07:44;;;;;;;18.13;12.32;;;;;;;20.12;57.07;101771.72;5132927;27;20037;-56
2021/08/25 03:10:10;;;;;;;17.65;13.00;;;;;;;20.14;57.00;101777.75;5133223;27;20095;-56
2021/08/25 03:12:36;;;;;;;18.88;13.05;;;;;;;20.11;57.02;101780.78;5132622;27;20393;-56
2021/08/25 03:15:06;;;;;;;26.95;13.13;;;;;;;20.11;56.95;101783.47;5132860;27;20039;-55
2021/08/25 03:17:32;;;;;;;18.88;13.88;;;;;;;20.11;57.00;101778.13;5132660;27;20114;-57
2021/08/25 03:19:58;;;;;;;18.83;14.00;;;;;;;20.05;57.01;101772.44;5109993;27;20143;-56
2021/08/25 03:22:25;;;;;;;16.75;13.65;;;;;;;20.04;56.98;101772.59;5112127;28;20106;-55
2021/08/25 03:24:51;;;;;;;21.60;13.60;;;;;;;20.05;56.95;101774.28;5111831;28;20562;-56
2021/08/25 03:27:17;;;;;;;21.60;14.02;;;;;;;20.03;56.83;101777.16;5112107;28;20028;-56
2021/08/25 03:29:43;;;;;;;17.83;13.25;;;;;;;20.01;56.93;101767.56;5111760;28;20148;-56
2021/08/25 03:32:08;;;;;;;20.02;13.32;;;;;;;19.99;57.08;101759.69;5112155;28;20028;-55
2021/08/25 03:34:35;;;;;;;16.42;12.82;;;;;;;20.00;57.13;101756.00;5111762;28;20486;-57
2021/08/25 03:37:00;;;;;;;17.85;13.70;;;;;;;19.97;57.03;101764.41;5111796;28;20688;-56
2021/08/25 03:39:26;;;;;;;17.05;13.55;;;;;;;19.98;57.17;101774.13;5111705;28;20058;-56
2021/08/25 03:41:52;;;;;;;23.02;13.90;;;;;;;19.98;57.27;101765.22;5111810;28;20089;-55
2021/08/25 03:44:18;;;;;;;19.25;14.00;;;;;;;19.96;57.11;101763.56;5112348;28;20490;-55
2021/08/25 03:46:43;;;;;;;20.90;14.32;;;;;;;19.92;57.25;101770.25;5111595;28;20035;-55
2021/08/25 03:49:09;;;;;;;18.23;13.90;;;;;;;19.93;57.26;101765.75;5111696;28;20031;-56
2021/08/25 03:51:35;;;;;;;16.38;12.88;;;;;;;19.92;57.28;101753.34;5111513;28;20081;-55
2021/08/25 03:54:00;;;;;;;23.08;14.73;;;;;;;19.89;57.31;101769.78;5112071;28;20032;-56
2021/08/25 03:56:26;;;;;;;17.90;13.93;;;;;;;19.89;57.30;101761.75;5111340;28;20084;-58
2021/08/25 03:58:52;;;;;;;18.67;14.30;;;;;;;19.85;57.33;101763.94;5108132;27;20035;-56
2021/08/25 04:01:17;;;;;;;17.88;13.77;;;;;;;19.84;57.24;101764.97;5132073;27;20035;-55
2021/08/25 04:03:44;;;;;;;16.90;13.63;;;;;;;19.81;57.81;101762.63;5127418;27;20030;-56
2021/08/25 04:06:09;;;;;;;19.80;14.63;;;;;;;19.80;57.47;101761.78;5093269;28;20031;-56
2021/08/25 04:08:35;;;;;;;17.65;14.35;;;;;;;19.79;57.34;101760.13;5111397;28;20072;-55
2021/08/25 04:11:01;;;;;;;16.20;13.35;;;;;;;19.77;57.51;101762.13;5111548;28;20047;-56
2021/08/25 04:13:26;;;;;;;20.08;14.18;;;;;;;19.77;57.46;101770.16;5111302;28;20036;-57
2021/08/25 04:15:52;;;;;;;17.40;13.98;;;;;;;19.78;57.42;101771.84;5111290;28;20031;-55
2021/08/25 04:18:18;;;;;;;21.40;15.45;;;;;;;19.73;57.49;101768.84;5111738;28;20036;-56
2021/08/25 04:20:43;;;;;;;18.50;14.88;;;;;;;19.73;57.23;101762.66;5111220;28;20390;-56
2021/08/25 04:23:09;;;;;;;17.38;13.77;;;;;;;19.73;57.66;101757.28;5111282;28;20032;-56
2021/08/25 04:25:35;;;;;;;17.58;12.73;;;;;;;19.70;57.56;101761.16;5093081;28;20039;-57
2021/08/25 04:28:00;;;;;;;16.02;13.60;;;;;;;19.68;57.63;101766.69;5111202;28;20027;-56
2021/08/25 04:30:26;;;;;;;17.65;13.77;;;;;;;19.67;57.78;101759.63;5125295;28;20028;-56
2021/08/25 04:32:52;;;;;;;15.73;12.70;;;;;;;19.68;57.71;101752.44;5131793;28;20027;-56
2021/08/25 04:35:18;;;;;;;16.77;13.13;;;;;;;19.66;57.52;101752.63;5101872;28;20497;-56
2021/08/25 04:37:43;;;;;;;13.85;12.18;;;;;;;19.68;57.41;101753.28;5111129;28;20060;-56
2021/08/25 04:40:09;;;;;;;17.77;12.95;;;;;;;19.68;57.65;101758.66;5111152;28;20390;-56
2021/08/25 04:42:35;;;;;;;15.23;13.18;;;;;;;19.68;57.77;101755.13;5092764;28;20118;-55
2021/08/25 04:45:01;;;;;;;14.80;12.38;;;;;;;19.64;57.87;101757.31;5111697;28;20062;-57
2021/08/25 04:47:26;;;;;;;15.15;12.55;;;;;;;19.64;57.74;101746.56;5111206;28;20031;-56
2021/08/25 04:49:52;;;;;;;15.43;12.27;;;;;;;19.65;57.61;101750.91;5112385;28;20032;-56
2021/08/25 04:52:17;;;;;;;14.90;12.02;;;;;;;19.63;57.64;101747.59;5115098;28;20039;-56
2021/08/25 04:54:44;;;;;;;13.30;11.88;;;;;;;19.62;57.71;101745.91;5114971;28;20076;-55
2021/08/25 04:57:09;;;;;;;16.00;12.32;;;;;;;19.61;57.55;101740.72;5115329;27;20351;-56
2021/08/25 04:59:35;;;;;;;13.48;11.20;;;;;;;19.60;57.77;101750.63;5120931;27;20036;-55
2021/08/25 05:02:01;;;;;;;14.30;11.20;;;;;;;19.57;57.82;101745.59;5135452;27;20039;-56
2021/08/25 05:04:27;;;;;;;12.65;10.63;;;;;;;19.60;57.65;101742.56;5135530;27;20062;-56
2021/08/25 05:06:52;;;;;;;12.85;11.05;;;;;;;19.58;57.58;101747.25;5135284;27;20031;-55
2021/08/25 05:09:18;;;;;;;17.70;11.48;;;;;;;19.55;57.66;101748.47;5135399;27;20046;-56
2021/08/25 05:11:44;;;;;;;13.85;10.95;;;;;;;19.56;57.60;101749.28;5135017;27;20031;-55
2021/08/25 05:14:10;;;;;;;13.15;10.48;;;;;;;19.54;57.11;101737.91;5135263;27;20493;-57
2021/08/25 05:16:35;;;;;;;11.50;10.20;;;;;;;19.52;56.54;101747.97;5135042;27;20497;-55
2021/08/25 05:19:01;;;;;;;11.23;9.70;;;;;;;19.50;56.66;101745.44;5135157;27;20072;-55
2021/08/25 05:21:26;;;;;;;10.52;9.43;;;;;;;19.46;56.43;101742.25;5120601;27;20073;-57
2021/08/25 05:23:53;;;;;;;11.30;10.15;;;;;;;19.44;56.34;101738.94;5126962;27;20023;-56
2021/08/25 05:26:19;;;;;;;10.68;9.30;;;;;;;19.38;55.89;101745.00;5131871;27;20073;-56
2021/08/25 05:28:45;;;;;;;10.93;9.25;;;;;;;19.38;56.23;101750.34;5134805;27;20024;-57
2021/08/25 05:31:11;;;;;;;13.02;9.32;;;;;;;19.33;55.94;101744.66;5093131;28;20059;-57
2021/08/25 05:33:36;;;;;;;10.88;8.98;;;;;;;19.28;56.09;101753.22;5106010;28;20027;-57
2021/08/25 05:36:02;;;;;;;11.10;9.90;;;;;;;19.27;56.41;101758.75;5114134;28;20432;-57
2021/08/25 05:38:28;;;;;;;10.80;9.32;;;;;;;19.28;56.37;101750.53;5104805;28;20036;-56
2021/08/25 05:40:54;;;;;;;10.23;9.10;;;;;;;19.29;56.68;101756.72;5109417;28;20031;-56
2021/08/25 05:43:19;;;;;;;14.55;9.00;;;;;;;19.29;56.68;101749.50;5114094;28;20032;-57
2021/08/25 05:45:45;;;;;;;11.80;10.00;;;;;;;19.25;56.31;101753.56;5128781;27;20109;-56
2021/08/25 05:48:11;;;;;;;12.68;9.98;;;;;;;19.23;56.76;101749.34;5134652;27;20501;-56
2021/08/25 05:50:37;;;;;;;9.48;8.48;;;;;;;19.24;56.89;101751.03;5134664;27;20417;-57
2021/08/25 05:53:03;;;;;;;11.48;9.00;;;;;;;19.26;57.18;101751.69;5134385;27;20031;-57
2021/08/25 05:55:28;;;;;;;10.20;8.95;;;;;;;19.29;57.44;101754.88;5125560;27;20040;-56
2021/08/25 05:57:54;;;;;;;11.18;9.40;;;;;;;19.29;57.75;101752.19;5129381;27;20039;-56
2021/08/25 06:00:20;;;;;;;9.60;7.90;;;;;;;19.33;57.76;101752.69;5134667;27;20381;-57
2021/08/25 06:02:46;;;;;;;9.73;8.30;;;;;;;19.33;57.94;101760.75;5134356;27;20053;-55
2021/08/25 06:05:13;;;;;;;10.88;9.27;;;;;;;19.32;57.72;101757.22;5115706;27;20031;-55
2021/08/25 06:07:40;;;;;;;11.27;9.35;;;;;;;19.29;57.74;101762.91;5134260;27;20031;-56
2021/08/25 06:10:07;;;;;;;9.77;8.48;;;;;;;19.32;58.01;101756.38;5134079;27;20029;-56
2021/08/25 06:12:34;;;;;;;10.48;8.75;;;;;;;19.32;58.36;101759.91;5134178;27;20035;-56
2021/08/25 06:15:01;;;;;;;10.95;9.32;;;;;;;19.34;58.45;101759.72;5115262;27;20062;-56
2021/08/25 06:17:26;;;;;;;10.68;8.90;;;;;;;19.33;58.43;101758.88;5134119;27;20056;-56
2021/08/25 06:19:52;;;;;;;12.50;9.90;;;;;;;19.33;58.51;101756.19;5115457;27;20038;-56
2021/08/25 06:22:18;;;;;;;12.27;9.55;;;;;;;19.32;58.47;101759.06;5133883;27;20035;-58
2021/08/25 06:24:44;;;;;;;10.57;9.48;;;;;;;19.33;58.29;101760.75;5133937;27;20039;-56
2021/08/25 06:27:10;;;;;;;11.90;10.43;;;;;;;19.32;58.35;101761.72;5115080;27;20027;-56
2021/08/25 06:29:35;;;;;;;14.88;10.70;;;;;;;19.28;58.38;101760.41;5125101;27;20028;-56
2021/08/25 06:32:02;;;;;;;10.90;9.80;;;;;;;19.30;58.48;101756.53;5113228;28;20048;-56
2021/08/25 06:34:28;;;;;;;12.50;10.60;;;;;;;19.28;58.62;101758.56;5117435;27;20035;-56
2021/08/25 06:36:53;;;;;;;13.20;10.40;;;;;;;19.27;58.72;101759.56;5133899;27;20492;-56
2021/08/25 06:39:20;;;;;;;13.65;10.57;;;;;;;19.20;58.99;101758.56;5133454;27;20058;-56
2021/08/25 06:41:47;;;;;;;12.82;10.68;;;;;;;19.22;59.05;101764.63;5133566;27;20046;-57
2021/08/25 06:44:12;;;;;;;13.43;10.52;;;;;;;19.16;59.19;101760.75;5133896;27;20035;-56
2021/08/25 06:46:38;;;;;;;13.48;10.60;;;;;;;19.13;59.34;101762.97;5126820;27;20035;-56
2021/08/25 06:49:04;;;;;;;12.45;10.70;;;;;;;19.16;59.40;101766.13;5126068;27;20031;-55
2021/08/25 06:51:29;;;;;;;12.52;10.25;;;;;;;19.16;59.53;101765.28;5128342;27;20028;-57
2021/08/25 06:53:55;;;;;;;10.68;9.18;;;;;;;19.18;59.73;101761.44;5123849;27;20038;-56
2021/08/25 06:56:21;;;;;;;10.13;7.97;;;;;;;19.25;60.10;101763.44;5114803;27;20039;-56
2021/08/25 06:58:47;;;;;;;9.05;6.93;;;;;;;19.25;60.41;101764.28;5133020;27;20088;-55
2021/08/25 07:01:12;;;;;;;15.00;8.18;;;;;;;19.27;60.37;101769.47;5133107;27;20080;-57
2021/08/25 07:03:38;;;;;;;11.10;8.77;;;;;;;19.28;60.01;101763.09;5131196;27;20393;-58
2021/08/25 07:06:04;;;;;;;12.38;9.75;;;;;;;19.25;60.58;101756.25;5112459;28;20050;-56
2021/08/25 07:08:29;;;;;;;9.77;8.77;;;;;;;19.23;60.37;101760.06;5098971;27;20032;-57
2021/08/25 07:10:55;;;;;;;9.82;8.80;;;;;;;19.24;60.45;101767.94;5120159;27;20031;-57
2021/08/25 07:13:21;;;;;;;13.07;8.82;;;;;;;19.24;60.43;101753.72;5111293;28;20035;-56
2021/08/25 07:15:46;;;;;;;11.55;9.68;;;;;;;19.24;60.66;101751.03;5110468;28;20035;-56
2021/08/25 07:18:12;;;;;;;10.50;8.90;;;;;;;19.19;60.95;101749.69;5110905;28;20081;-56
2021/08/25 07:20:38;;;;;;;10.55;8.77;;;;;;;19.22;60.78;101745.84;5111516;28;20043;-57
2021/08/25 07:23:03;;;;;;;9.73;8.00;;;;;;;19.25;60.65;101748.19;5111293;28;20494;-57
2021/08/25 07:25:29;;;;;;;14.18;8.40;;;;;;;19.27;60.67;101748.03;5110026;28;20027;-57
2021/08/25 07:27:55;;;;;;;11.02;8.32;;;;;;;19.26;60.51;101749.84;5117446;27;20031;-57
2021/08/25 07:30:21;;;;;;;23.42;9.00;;;;;;;19.26;60.84;101752.53;5111678;28;20471;-56
2021/08/25 07:32:46;;;;;;;11.63;8.73;;;;;;;19.28;60.60;101750.53;5098383;27;20049;-56
2021/08/25 07:35:12;;;;;;;12.18;9.32;;;;;;;19.29;60.77;101754.03;5118837;27;20031;-56
2021/08/25 07:37:38;;;;;;;14.18;8.55;;;;;;;19.30;60.74;101751.19;5102159;27;20054;-56
2021/08/25 07:40:06;;;;;;;10.95;9.05;;;;;;;19.31;60.88;101752.88;5115664;27;20063;-56
2021/08/25 07:42:31;;;;;;;14.50;10.02;;;;;;;19.30;61.09;101756.53;5118086;27;20077;-56
2021/08/25 07:45:00;;;;;;;10.93;9.27;;;;;;;19.29;61.20;101749.50;5123198;27;20027;-57
2021/08/25 07:47:26;;;;;;;16.15;10.35;;;;;;;19.30;61.63;101758.41;5106107;28;20035;-58
2021/08/25 07:49:52;;;;;;;18.80;10.10;;;;;;;19.30;62.32;101759.22;5116870;27;20032;-57
2021/08/25 07:52:18;;;;;;;13.57;11.50;;;;;;;19.30;62.62;101756.53;5118628;27;20084;-58
2021/08/25 07:54:43;;;;;;;16.92;11.10;;;;;;;19.31;62.97;101765.44;5124986;27;20367;-58
2021/08/25 07:57:09;;;;;;;18.50;11.25;;;;;;;19.31;63.71;101768.09;5117246;27;20036;-58
2021/08/25 07:59:35;;;;;;;15.85;11.27;;;;;;;19.32;63.74;101767.94;5119039;27;20039;-56
2021/08/25 08:02:00;;;;;;;12.52;10.65;;;;;;;19.33;63.58;101769.59;5106784;28;20035;-56
2021/08/25 08:04:27;;;;;;;12.57;10.25;;;;;;;19.34;63.32;101763.25;5112461;27;20501;-57
2021/08/25 08:06:53;;;;;;;13.05;10.35;;;;;;;19.30;64.39;101761.91;5113937;27;20040;-57
2021/08/25 08:09:19;;;;;;;12.73;10.48;;;;;;;19.32;63.85;101754.53;5112884;28;20031;-56
2021/08/25 08:11:45;;;;;;;14.40;11.18;;;;;;;19.33;63.84;101752.69;5128577;27;20456;-56
2021/08/25 08:14:11;;;;;;;12.32;10.88;;;;;;;19.31;64.29;101752.88;5130554;27;20378;-56
2021/08/25 08:16:39;;;;;;;12.10;10.70;;;;;;;19.31;64.63;101752.88;5130633;27;20038;-56
2021/08/25 08:19:17;;;;;;;12.75;9.60;;;;;;;19.32;64.64;101753.69;5125971;28;20379;-54
2021/08/25 08:21:43;;;;;;;11.73;9.88;;;;;;;19.32;65.17;101754.53;5126110;28;20057;-55
2021/08/25 08:24:09;;;;;;;10.32;9.23;;;;;;;19.32;65.61;101751.00;5126158;27;20501;-56
2021/08/25 08:26:34;;;;;;;10.13;8.88;;;;;;;19.33;65.30;101752.69;5133521;27;20044;-55
2021/08/25 08:29:00;;;;;;;9.88;8.60;;;;;;;19.35;65.69;101745.31;5130107;27;20523;-56
2021/08/25 08:31:27;;;;;;;10.10;8.93;;;;;;;19.37;65.45;101750.50;5127940;27;20080;-56
2021/08/25 08:33:53;;;;;;;15.68;8.43;;;;;;;19.38;65.44;101746.81;5135460;27;20031;-56
2021/08/25 08:36:19;;;;;;;8.93;7.85;;;;;;;19.37;65.80;101751.34;5134922;27;20031;-55
2021/08/25 08:38:45;;;;;;;10.95;7.82;;;;;;;19.38;65.68;101750.34;5134163;27;20031;-56
2021/08/25 08:41:11;;;;;;;8.98;7.90;;;;;;;19.38;65.84;101752.19;5133761;27;20386;-56
2021/08/25 08:43:42;;;;;;;12.57;7.80;;;;;;;19.39;66.03;101749.34;5135442;27;20046;-56
2021/08/25 08:46:12;;;;;;;10.90;7.38;;;;;;;19.42;65.58;101750.81;5134677;27;20070;-56
2021/08/25 08:48:38;;;;;;;9.70;7.72;;;;;;;19.41;65.62;101760.72;5133522;27;20157;-56
2021/08/25 08:51:04;;;;;;;9.15;7.50;;;;;;;19.42;65.84;101751.66;5115896;27;20493;-56
2021/08/25 08:53:30;;;;;;;7.95;7.22;;;;;;;19.42;66.35;101751.66;5126009;27;20027;-57
2021/08/25 08:55:56;;;;;;;8.73;7.28;;;;;;;19.42;65.85;101749.00;5132834;27;20092;-55
2021/08/25 08:58:22;;;;;;;8.05;7.25;;;;;;;19.43;65.68;101749.84;5134092;27;20019;-56
2021/08/25 09:00:47;;;;;;;9.85;7.03;;;;;;;19.45;65.58;101748.66;5134042;27;20046;-57
2021/08/25 09:03:22;;;;;;;7.72;6.93;;;;;;;19.45;66.12;101751.31;5132556;27;20032;-56
2021/08/25 09:05:55;;;;;;;13.15;9.20;;;;;;;19.46;66.34;101754.84;5134670;27;20592;-55
2021/08/25 09:08:27;;;;;;;15.18;8.85;;;;;;;19.47;66.67;101751.16;5115625;27;20485;-56
2021/08/25 09:11:06;;;;;;;10.57;8.60;;;;;;;19.48;66.96;101746.63;5134116;27;20359;-57
2021/08/25 09:13:34;;;;;;;10.73;8.52;;;;;;;19.49;66.83;101748.31;5132425;27;20069;-57
2021/08/25 09:16:01;;;;;;;11.30;7.68;;;;;;;19.51;66.70;101751.66;5132344;27;20043;-56
2021/08/25 09:18:26;;;;;;;8.20;7.20;;;;;;;19.51;66.60;101738.25;5131259;27;20043;-55
2021/08/25 09:20:52;;;;;;;8.23;7.10;;;;;;;19.52;66.62;101743.44;5132968;27;20409;-56
2021/08/25 09:23:28;;;;;;;9.00;6.22;;;;;;;19.53;66.72;101738.91;5129818;27;20034;-56
2021/08/25 09:26:00;;;;;;;11.00;8.05;;;;;;;19.55;66.96;101744.94;5133814;27;20400;-58
2021/08/25 09:28:35;;;;;;;9.55;6.53;;;;;;;19.56;67.02;101742.06;5122148;27;20118;-55
2021/08/25 09:31:11;;;;;;;8.05;6.82;;;;;;;19.57;66.90;101741.06;5114320;27;20027;-56
2021/08/25 09:33:39;;;;;;;8.52;5.80;;;;;;;19.59;66.96;101747.09;5113112;27;20050;-56
2021/08/25 09:36:11;;;;;;;6.25;5.65;;;;;;;19.60;66.98;101747.94;5115235;27;20042;-56
2021/08/25 09:38:38;;;;;;;11.02;6.15;;;;;;;19.61;66.50;101749.59;5129594;27;20031;-56
2021/08/25 09:41:11;;;;;;;8.82;5.55;;;;;;;19.61;66.46;101749.59;5133317;27;20560;-56
2021/08/25 09:43:40;;;;;;;7.15;5.80;;;;;;;19.63;66.38;101750.28;5132672;27;20626;-56
2021/08/25 09:46:21;;;;;;;6.00;5.00;;;;;;;19.64;66.61;101753.78;5133710;27;20035;-55
2021/08/25 09:48:48;;;;;;;10.80;5.47;;;;;;;19.66;66.28;101757.13;5132921;27;20039;-56
2021/08/25 09:51:16;;;;;;;11.43;6.00;;;;;;;19.66;66.42;101755.28;5132879;27;20031;-56
2021/08/25 09:53:45;;;;;;;8.55;6.03;;;;;;;19.68;66.25;101749.75;5132414;27;20070;-56
2021/08/25 09:56:28;;;;;;;5.55;4.68;;;;;;;19.70;66.16;101747.75;5130829;27;20028;-56
2021/08/25 09:58:55;;;;;;;40.78;11.30;;;;;;;19.71;65.97;101742.22;5133331;27;20104;-57
2021/08/25 10:01:21;;;;;;;30.33;8.60;;;;;;;19.74;65.81;101745.53;5131033;27;20034;-56
2021/08/25 10:03:47;;;;;;;23.73;7.65;;;;;;;19.75;65.85;101742.69;5118265;27;20505;-57
2021/08/25 10:06:18;;;;;;;20.77;7.90;;;;;;;19.76;65.64;101738.16;5128395;27;20027;-56
2021/08/25 10:08:45;;;;;;;23.08;7.43;;;;;;;19.78;65.56;101731.59;5130881;27;20152;-56
2021/08/25 10:11:12;;;;;;;19.88;7.05;;;;;;;19.80;65.45;101726.06;5130964;27;20026;-57
2021/08/25 10:13:38;;;;;;;16.80;7.05;;;;;;;19.81;65.17;101728.56;5127706;27;20136;-56
2021/08/25 10:16:04;;;;;;;19.20;7.32;;;;;;;19.83;65.00;101718.50;5117413;27;20081;-56
2021/08/25 10:18:37;;;;;;;22.35;7.78;;;;;;;19.84;64.83;101714.78;5112672;27;20035;-56
2021/08/25 10:21:24;;;;;;;21.42;8.43;;;;;;;19.88;64.77;101712.59;5120151;27;20474;-57
2021/08/25 10:23:58;;;;;;;30.20;8.88;;;;;;;19.89;64.72;101710.78;5129731;27;20047;-58
2021/08/25 10:26:25;;;;;;;24.33;8.35;;;;;;;19.90;64.63;101705.22;5117592;27;20062;-56
2021/08/25 10:29:10;;;;;;;22.35;8.15;;;;;;;19.92;64.65;101711.22;5114588;27;20046;-57
2021/08/25 10:31:47;;;;;;;27.33;9.15;;;;;;;19.94;64.63;101709.22;5123862;27;20074;-56
2021/08/25 10:34:20;;;;;;;22.83;7.60;;;;;;;19.95;64.66;101699.34;5124206;27;20036;-57
2021/08/25 10:36:47;;;;;;;20.02;7.65;;;;;;;19.98;64.35;101707.03;5114532;27;20496;-57
2021/08/25 10:39:32;;;;;;;22.42;6.80;;;;;;;20.00;64.55;101706.84;5128537;27;20023;-57
2021/08/25 10:41:59;;;;;;;20.00;6.93;;;;;;;20.02;64.42;101710.22;5126556;27;20523;-57
2021/08/25 10:44:37;;;;;;;18.88;6.10;;;;;;;20.03;64.41;101701.16;5126504;27;20460;-57
2021/08/25 10:47:04;;;;;;;12.85;5.20;;;;;;;20.04;64.27;101694.78;5120421;27;20074;-57
2021/08/25 10:49:34;;;;;;;10.32;4.90;;;;;;;20.06;64.14;101698.13;5116552;27;20031;-57
2021/08/25 10:52:28;;;;;;;9.93;5.05;;;;;;;20.08;64.27;101702.28;5121579;27;20055;-57
2021/08/25 10:54:55;;;;;;;11.80;4.78;;;;;;;20.12;64.23;101700.09;5112467;27;20032;-57
2021/08/25 10:57:24;;;;;;;8.68;4.72;;;;;;;20.13;64.15;101707.13;5117926;27;20027;-57
2021/08/25 10:59:51;;;;;;;10.70;5.57;;;;;;;20.15;64.23;101701.59;5099958;28;20043;-57
2021/08/25 11:02:17;;;;;;;7.13;4.30;;;;;;;20.17;64.15;101696.88;5121673;27;20489;-58
2021/08/25 11:04:42;;;;;;;8.60;4.32;;;;;;;20.17;64.07;101697.72;5121463;27;20068;-57
2021/08/25 11:07:10;;;;;;;5.25;3.72;;;;;;;20.17;64.04;101692.34;5116810;27;20031;-57
2021/08/25 11:09:40;;;;;;;6.68;3.67;;;;;;;20.19;64.16;101686.81;5115606;27;20065;-57
2021/08/25 11:12:09;;;;;;;7.10;3.85;;;;;;;20.21;64.02;101684.75;5118561;27;20047;-57
2021/08/25 11:14:38;;;;;;;5.22;4.00;;;;;;;20.24;64.07;101676.38;5130907;27;20504;-57